FW4495 Edgewater MD US current weather conditions

sailwx.info

Wind from 256 at 2 knots gusting 7

Air temperature 8.3° C
Dewpoint -0.4° C

Last reported at 2020-Jan-26 19:45 UTC.
Time now 2020-Jan-26 20:23 UTC

Location: N 38°55' W 076°34'.
View on Google Maps.

See reports from other nearby stations

  
Tides and Currents Weather Stations Pressure Air Temp Water Temp Dewpoint Dewpoint Depression Visibility Wind Speed Wind Dir Waves Ship Positions
date/time (UTC)wind fromknots sea level pressurealtimeterstation pressurevisibilityair tempwater tempwave heightnotes
2020-Jan-26 20:00 266 4 gusting 8 8.3
2020-Jan-26 19:45 256 2 gusting 7 8.3
2020-Jan-26 19:30 187 1 gusting 7 8.3
2020-Jan-26 19:15 269 2 gusting 9 8.3
2020-Jan-26 19:00 229 3 gusting 7 8.3
2020-Jan-26 18:45 190 1 gusting 6 8.3
2020-Jan-26 18:30 151 3 gusting 10 8.3
2020-Jan-26 18:17 213 3 gusting 9 8.3
2020-Jan-26 18:02 286 1 gusting 5 8.3
2020-Jan-26 17:47 306 6 gusting 13 8.3
2020-Jan-26 17:33 277 2 gusting 12 8.3
2020-Jan-26 17:16 173 6 gusting 9 8.9
2020-Jan-26 17:01 290 2 gusting 10 9.4
2020-Jan-26 16:46 360 5 gusting 11 8.9
2020-Jan-26 16:31 222 2 gusting 10 8.9
2020-Jan-26 16:16 208 4 gusting 9 8.3
2020-Jan-26 16:01 231 6 gusting 14 8.3
2020-Jan-26 15:46 229 4 gusting 10 8.3
2020-Jan-26 15:30 243 5 gusting 13 7.8
2020-Jan-26 15:15 294 2 gusting 6 7.8
2020-Jan-26 14:46 265 2 gusting 7 6.7
2020-Jan-26 14:30 275 2 gusting 8 6.7
2020-Jan-26 14:15 214 0 gusting 6 6.1
2020-Jan-26 14:00 230 3 gusting 8 5.6
2020-Jan-26 13:45 189 1 gusting 4 4.4
2020-Jan-26 13:17 200 0 gusting 3 2.2
2020-Jan-26 13:01 217 0 gusting 2 1.1
2020-Jan-26 12:47 232 1.1
2020-Jan-26 12:31 232 0 gusting 1 1.1
2020-Jan-26 12:20 232 1.1
2020-Jan-26 12:02 232 0 gusting 3 1.1
2020-Jan-26 11:47 243 1.1
2020-Jan-26 11:32 243 0 gusting 1 1.1
2020-Jan-26 11:16 243 0 gusting 1 1.1
2020-Jan-26 11:01 243 0 gusting 1 1.1
2020-Jan-26 10:46 243 1.1
2020-Jan-26 10:32 243 0 gusting 1 1.7
2020-Jan-26 10:16 243 0 gusting 1 1.7
2020-Jan-26 10:01 243 1.7
2020-Jan-26 09:46 243 1.7
2020-Jan-26 09:31 243 1.7
2020-Jan-26 09:16 243 1.7
2020-Jan-26 09:00 243 1.7
2020-Jan-26 08:46 243 2.2
2020-Jan-26 08:31 243 0 gusting 2 2.2
2020-Jan-26 08:16 200 2.2
2020-Jan-26 08:01 200 2.2
2020-Jan-26 07:46 200 0 gusting 1 2.2
2020-Jan-26 07:31 200 2.8
2020-Jan-26 07:15 200 0 gusting 1 2.8
2020-Jan-26 07:00 200 0 gusting 1 3.3
2020-Jan-26 06:45 200 3.3
2020-Jan-26 06:30 200 3.9
2020-Jan-26 06:16 200 4.4
2020-Jan-26 06:01 132 0 gusting 2 4.4
2020-Jan-26 05:45 244 0 gusting 3 5.0
2020-Jan-26 05:30 199 0 gusting 2 5.0
2020-Jan-26 05:16 223 5.6
2020-Jan-26 05:00 236 1 gusting 4 5.0
2020-Jan-26 04:45 256 0 gusting 2 4.4
2020-Jan-26 04:32 224 3.9
2020-Jan-26 04:17 224 3.9
2020-Jan-26 04:03 224 0 gusting 1 3.9
2020-Jan-26 03:46 224 0 gusting 1 4.4
2020-Jan-26 03:31 224 0 gusting 1 4.4
2020-Jan-26 03:16 224 5.0
2020-Jan-26 03:01 224 0 gusting 2 5.0
2020-Jan-26 02:47 276 5.0
2020-Jan-26 02:31 276 5.6
2020-Jan-26 02:18 167 5.6
2020-Jan-26 02:01 167 0 gusting 1 6.1
2020-Jan-26 01:47 167 6.1
2020-Jan-26 01:32 167 6.1
2020-Jan-26 01:17 167 6.1
2020-Jan-26 01:01 167 6.1
2020-Jan-26 00:46 167 5.6
2020-Jan-26 00:32 166 6.1
2020-Jan-26 00:16 166 6.7
2020-Jan-26 00:02 167 6.7
2020-Jan-25 23:46 166 6.7
2020-Jan-25 23:31 017 6.7
2020-Jan-25 23:16 005 6.7
2020-Jan-25 23:00 005 0 gusting 1 7.2
2020-Jan-25 22:45 355 0 gusting 2 8.3
2020-Jan-25 22:31 009 8.3
2020-Jan-25 22:16 282 0 gusting 5 8.9
2020-Jan-25 22:01 248 0 gusting 5 9.4
2020-Jan-25 21:45 053 0 gusting 11 9.4
2020-Jan-25 21:31 302 1 gusting 5 9.4
2020-Jan-25 21:15 171 0 gusting 7 9.4
2020-Jan-25 21:01 265 3 gusting 6 9.4
2020-Jan-25 20:45 219 2 gusting 6 9.4
2020-Jan-25 20:31 259 1 gusting 9 9.4
2020-Jan-25 20:16 227 2 gusting 8 10.0
2020-Jan-25 20:00 236 1 gusting 12 10.0
2020-Jan-25 19:47 196 1 gusting 6 10.0
2020-Jan-25 19:30 232 3 gusting 9 10.6
2020-Jan-25 19:15 241 3 gusting 7 10.0
2020-Jan-25 19:00 360 1 gusting 10 10.0
2020-Jan-25 18:45 237 2 gusting 6 9.4
2020-Jan-25 18:30 196 3 gusting 7 9.4
2020-Jan-25 18:15 222 0 gusting 11 9.4
2020-Jan-25 18:00 227 3 gusting 6 9.4
2020-Jan-25 17:45 265 2 gusting 6 8.9
2020-Jan-25 17:30 207 3 gusting 7 9.4
2020-Jan-25 17:02 296 2 gusting 6 8.9
2020-Jan-25 16:46 225 0 gusting 6 8.9
2020-Jan-25 16:32 230 1 gusting 6 8.3
2020-Jan-25 16:17 189 2 gusting 7 8.3
2020-Jan-25 16:01 222 5 gusting 9 8.3
2020-Jan-25 15:46 196 3 gusting 7 8.3
2020-Jan-25 15:33 242 2 gusting 7 8.3
2020-Jan-25 15:16 213 3 gusting 6 8.3
2020-Jan-25 15:02 217 1 gusting 4 7.8
2020-Jan-25 14:47 168 0 gusting 4 7.8
2020-Jan-25 14:31 281 7.8
2020-Jan-25 14:17 085 0 gusting 3 7.8
2020-Jan-25 14:01 036 0 gusting 3 7.8
2020-Jan-25 13:47 061 7.8
2020-Jan-25 13:32 048 3 gusting 8 7.8
2020-Jan-25 13:16 019 2 gusting 9 7.8
2020-Jan-25 13:00 012 2 gusting 10 7.8
2020-Jan-25 12:45 005 2 gusting 7 7.8
2020-Jan-25 12:30 038 1 gusting 4 7.8
2020-Jan-25 12:16 294 0 gusting 9 7.8
2020-Jan-25 12:01 310 3 gusting 7 7.8
2020-Jan-25 11:46 336 4 gusting 8 7.8
2020-Jan-25 11:32 328 1 gusting 3 7.8
2020-Jan-25 11:16 323 2 gusting 4 8.3
2020-Jan-25 11:01 213 3 gusting 7 8.3
2020-Jan-25 10:45 232 1 gusting 6 8.3
2020-Jan-25 10:30 065 0 gusting 5 7.8
2020-Jan-25 10:01 044 1 gusting 5 7.8
2020-Jan-25 09:45 055 0 gusting 6 7.8
2020-Jan-25 09:30 031 3 gusting 7 7.8
2020-Jan-25 09:15 024 3 gusting 6 7.8
2020-Jan-25 09:00 063 2 gusting 3 7.8
2020-Jan-25 08:45 064 1 gusting 5 7.8
2020-Jan-25 08:30 076 1 gusting 4 7.8
2020-Jan-25 08:02 080 2 gusting 9 7.8
2020-Jan-25 07:48 123 0 gusting 8 7.8
2020-Jan-25 07:31 091 6 gusting 12 7.8
2020-Jan-25 07:18 078 5 gusting 10 7.8
2020-Jan-25 07:01 101 5 gusting 14 7.8
2020-Jan-25 06:46 058 4 gusting 8 7.8
2020-Jan-25 06:31 087 4 gusting 9 7.8
2020-Jan-25 06:16 091 2 gusting 7 7.8
2020-Jan-25 06:02 105 1 gusting 7 7.8
2020-Jan-25 05:47 050 3 gusting 9 7.8
2020-Jan-25 05:32 071 2 gusting 6 7.8
2020-Jan-25 05:16 103 3 gusting 6 7.8
2020-Jan-25 05:01 097 2 gusting 9 7.8
2020-Jan-25 04:46 082 4 gusting 8 7.8
2020-Jan-25 04:30 133 3 gusting 9 7.8
2020-Jan-25 04:16 082 5 gusting 14 7.8
2020-Jan-25 04:01 059 5 gusting 11 7.2
2020-Jan-25 03:46 074 3 gusting 11 7.8
2020-Jan-25 03:30 082 4 gusting 9 7.8
2020-Jan-25 03:15 110 3 gusting 9 7.8
2020-Jan-25 03:01 105 2 gusting 6 7.8
2020-Jan-25 02:46 094 0 gusting 6 7.8
2020-Jan-25 02:30 098 4 gusting 8 7.2
2020-Jan-25 02:15 078 2 gusting 7 7.2
2020-Jan-25 02:00 084 2 gusting 6 7.2
2020-Jan-25 01:45 069 1 gusting 6 7.2
2020-Jan-25 01:31 080 3 gusting 8 7.8
2020-Jan-25 01:15 069 4 gusting 8 7.8
2020-Jan-25 01:00 082 4 gusting 12 7.8
2020-Jan-25 00:45 120 3 gusting 8 7.8
2020-Jan-25 00:30 070 4 gusting 9 8.3
2020-Jan-25 00:15 053 2 gusting 8 8.3
2020-Jan-25 00:00 049 3 gusting 10 8.3
2020-Jan-24 23:45 043 2 gusting 7 8.9
2020-Jan-24 23:30 107 2 gusting 9 8.9
2020-Jan-24 23:15 057 4 gusting 8 9.4
2020-Jan-24 23:00 061 3 gusting 8 9.4
2020-Jan-24 22:45 092 3 gusting 8 10.0
2020-Jan-24 22:30 100 3 gusting 9 10.0
2020-Jan-24 22:15 076 2 gusting 5 10.0
2020-Jan-24 22:00 086 2 gusting 6 10.6
2020-Jan-24 21:45 037 2 gusting 5 10.6
2020-Jan-24 21:32 059 1 gusting 5 10.6
2020-Jan-24 21:17 067 2 gusting 6 10.6
2020-Jan-24 21:02 058 1 gusting 7 10.6
2020-Jan-24 20:47 055 2 gusting 4 10.6
2020-Jan-24 20:31 057 3 gusting 5 10.6
2020-Jan-24 20:15 063 1 gusting 4 10.6
2020-Jan-24 20:01 042 0 gusting 5 10.0